sensor_id;sensor_type;location;lat;lon;timestamp;P1;P2;P0
65556;PMS3003;52200;53.490;14.376;2023-09-30T00:00:00;5.00;4.00;0.00
65556;PMS3003;52200;53.490;14.376;2023-09-30T00:02:26;5.00;4.20;0.00
65556;PMS3003;52200;53.490;14.376;2023-09-30T00:04:52;3.60;3.60;0.00
65556;PMS3003;52200;53.490;14.376;2023-09-30T00:07:18;3.25;3.00;0.00
65556;PMS3003;52200;53.490;14.376;2023-09-30T00:09:43;3.00;3.00;0.00
65556;PMS3003;52200;53.490;14.376;2023-09-30T00:12:08;5.00;5.00;0.00
65556;PMS3003;52200;53.490;14.376;2023-09-30T00:14:34;3.00;3.00;0.00
65556;PMS3003;52200;53.490;14.376;2023-09-30T00:17:01;6.40;5.40;1.00
65556;PMS3003;52200;53.490;14.376;2023-09-30T00:19:26;6.00;6.00;1.25
65556;PMS3003;52200;53.490;14.376;2023-09-30T00:21:52;6.25;6.00;0.25
65556;PMS3003;52200;53.490;14.376;2023-09-30T00:24:18;5.60;4.60;0.00
65556;PMS3003;52200;53.490;14.376;2023-09-30T00:26:44;4.60;4.40;1.00
65556;PMS3003;52200;53.490;14.376;2023-09-30T00:29:11;4.40;4.40;1.20
65556;PMS3003;52200;53.490;14.376;2023-09-30T00:31:36;9.00;7.00;1.25
65556;PMS3003;52200;53.490;14.376;2023-09-30T00:34:02;5.50;5.50;1.00
65556;PMS3003;52200;53.490;14.376;2023-09-30T00:36:27;6.00;5.50;1.00
65556;PMS3003;52200;53.490;14.376;2023-09-30T00:38:53;8.00;7.50;1.00
65556;PMS3003;52200;53.490;14.376;2023-09-30T00:41:18;9.00;7.75;1.00
65556;PMS3003;52200;53.490;14.376;2023-09-30T00:43:45;5.50;4.50;1.00
65556;PMS3003;52200;53.490;14.376;2023-09-30T00:46:17;8.80;7.80;2.00
65556;PMS3003;52200;53.490;14.376;2023-09-30T00:48:50;10.20;6.80;1.80
65556;PMS3003;52200;53.490;14.376;2023-09-30T00:51:16;7.00;6.40;1.00
65556;PMS3003;52200;53.490;14.376;2023-09-30T00:53:42;7.00;6.20;1.20
65556;PMS3003;52200;53.490;14.376;2023-09-30T00:56:08;7.00;6.60;1.20
65556;PMS3003;52200;53.490;14.376;2023-09-30T00:58:35;9.20;7.80;1.40
65556;PMS3003;52200;53.490;14.376;2023-09-30T01:01:03;7.40;7.00;2.00
65556;PMS3003;52200;53.490;14.376;2023-09-30T01:03:29;10.20;7.20;2.00
65556;PMS3003;52200;53.490;14.376;2023-09-30T01:05:55;7.75;6.25;1.00
65556;PMS3003;52200;53.490;14.376;2023-09-30T01:08:20;9.00;7.25;2.00
65556;PMS3003;52200;53.490;14.376;2023-09-30T01:10:46;9.40;7.60;1.20
65556;PMS3003;52200;53.490;14.376;2023-09-30T01:13:13;8.40;7.40;1.40
65556;PMS3003;52200;53.490;14.376;2023-09-30T01:15:38;8.75;8.50;2.00
65556;PMS3003;52200;53.490;14.376;2023-09-30T01:18:04;8.75;7.00;2.00
65556;PMS3003;52200;53.490;14.376;2023-09-30T01:20:29;5.75;5.00;1.75
65556;PMS3003;52200;53.490;14.376;2023-09-30T01:22:56;10.20;8.40;2.00
65556;PMS3003;52200;53.490;14.376;2023-09-30T01:25:22;8.20;7.40;2.00
65556;PMS3003;52200;53.490;14.376;2023-09-30T01:27:49;8.20;7.80;2.00
65556;PMS3003;52200;53.490;14.376;2023-09-30T01:30:16;8.00;7.00;2.00
65556;PMS3003;52200;53.490;14.376;2023-09-30T01:32:43;11.60;11.60;2.60
65556;PMS3003;52200;53.490;14.376;2023-09-30T01:35:08;6.40;6.40;2.00
65556;PMS3003;52200;53.490;14.376;2023-09-30T01:37:34;12.60;9.00;1.20
65556;PMS3003;52200;53.490;14.376;2023-09-30T01:40:00;7.00;6.75;2.25
65556;PMS3003;52200;53.490;14.376;2023-09-30T01:42:26;11.40;9.40;3.00
65556;PMS3003;52200;53.490;14.376;2023-09-30T01:44:51;11.00;8.00;2.25
65556;PMS3003;52200;53.490;14.376;2023-09-30T01:47:17;8.00;6.75;2.00
65556;PMS3003;52200;53.490;14.376;2023-09-30T01:49:42;10.50;8.75;2.00
65556;PMS3003;52200;53.490;14.376;2023-09-30T01:52:07;9.50;8.25;2.00
65556;PMS3003;52200;53.490;14.376;2023-09-30T01:54:33;8.25;7.50;2.00
65556;PMS3003;52200;53.490;14.376;2023-09-30T01:56:59;9.40;7.20;2.60
65556;PMS3003;52200;53.490;14.376;2023-09-30T01:59:24;9.25;8.00;1.75
65556;PMS3003;52200;53.490;14.376;2023-09-30T02:01:50;10.25;8.25;2.00
65556;PMS3003;52200;53.490;14.376;2023-09-30T02:04:15;12.00;9.75;2.50
65556;PMS3003;52200;53.490;14.376;2023-09-30T02:06:44;10.75;8.00;2.00
65556;PMS3003;52200;53.490;14.376;2023-09-30T02:09:09;10.80;8.80;2.40
65556;PMS3003;52200;53.490;14.376;2023-09-30T02:11:35;13.00;8.25;2.00
65556;PMS3003;52200;53.490;14.376;2023-09-30T02:14:02;8.00;8.00;2.00
65556;PMS3003;52200;53.490;14.376;2023-09-30T02:16:28;11.00;9.80;2.00
65556;PMS3003;52200;53.490;14.376;2023-09-30T02:18:53;11.25;9.00;2.00
65556;PMS3003;52200;53.490;14.376;2023-09-30T02:21:18;13.75;10.25;3.00
65556;PMS3003;52200;53.490;14.376;2023-09-30T02:23:44;7.75;7.25;2.00
65556;PMS3003;52200;53.490;14.376;2023-09-30T02:26:13;11.60;8.80;2.00
65556;PMS3003;52200;53.490;14.376;2023-09-30T02:28:39;10.40;9.00;2.40
65556;PMS3003;52200;53.490;14.376;2023-09-30T02:31:04;8.25;8.25;1.25
65556;PMS3003;52200;53.490;14.376;2023-09-30T02:33:32;11.00;8.80;2.40
65556;PMS3003;52200;53.490;14.376;2023-09-30T02:36:00;8.00;7.00;2.00
65556;PMS3003;52200;53.490;14.376;2023-09-30T02:38:26;8.80;8.20;2.80
65556;PMS3003;52200;53.490;14.376;2023-09-30T02:40:53;9.00;8.00;2.00
65556;PMS3003;52200;53.490;14.376;2023-09-30T02:43:19;11.20;9.60;2.00
65556;PMS3003;52200;53.490;14.376;2023-09-30T02:45:45;13.75;11.00;3.25
65556;PMS3003;52200;53.490;14.376;2023-09-30T02:48:11;11.40;7.40;2.00
65556;PMS3003;52200;53.490;14.376;2023-09-30T02:50:37;10.75;9.00;1.75
65556;PMS3003;52200;53.490;14.376;2023-09-30T02:53:04;8.00;7.20;2.00
65556;PMS3003;52200;53.490;14.376;2023-09-30T02:55:29;12.25;9.00;3.00
65556;PMS3003;52200;53.490;14.376;2023-09-30T02:57:55;12.25;8.75;2.00
65556;PMS3003;52200;53.490;14.376;2023-09-30T03:00:21;8.00;6.25;2.00
65556;PMS3003;52200;53.490;14.376;2023-09-30T03:02:51;9.60;8.40;2.40
65556;PMS3003;52200;53.490;14.376;2023-09-30T03:05:20;14.40;10.00;3.00
65556;PMS3003;52200;53.490;14.376;2023-09-30T03:07:47;9.40;8.00;2.80
65556;PMS3003;52200;53.490;14.376;2023-09-30T03:10:13;9.40;7.00;2.00
65556;PMS3003;52200;53.490;14.376;2023-09-30T03:12:45;8.00;7.00;1.20
65556;PMS3003;52200;53.490;14.376;2023-09-30T03:15:13;8.60;7.60;2.00
65556;PMS3003;52200;53.490;14.376;2023-09-30T03:17:39;10.60;8.20;1.80
65556;PMS3003;52200;53.490;14.376;2023-09-30T03:20:06;11.40;10.00;3.00
65556;PMS3003;52200;53.490;14.376;2023-09-30T03:22:36;11.80;8.00;2.00
65556;PMS3003;52200;53.490;14.376;2023-09-30T03:25:03;9.20;8.60;2.00
65556;PMS3003;52200;53.490;14.376;2023-09-30T03:27:32;14.00;10.20;2.80
65556;PMS3003;52200;53.490;14.376;2023-09-30T03:29:58;12.00;10.20;1.80
65556;PMS3003;52200;53.490;14.376;2023-09-30T03:32:24;12.00;8.50;2.50
65556;PMS3003;52200;53.490;14.376;2023-09-30T03:34:50;9.40;7.00;2.00
65556;PMS3003;52200;53.490;14.376;2023-09-30T03:37:17;7.20;6.60;2.40
65556;PMS3003;52200;53.490;14.376;2023-09-30T03:39:42;9.00;8.50;2.00
65556;PMS3003;52200;53.490;14.376;2023-09-30T03:42:08;8.25;7.00;1.75
65556;PMS3003;52200;53.490;14.376;2023-09-30T03:44:36;7.80;7.60;2.00
65556;PMS3003;52200;53.490;14.376;2023-09-30T03:47:03;7.60;6.80;2.00
65556;PMS3003;52200;53.490;14.376;2023-09-30T03:49:29;9.00;7.60;1.00
65556;PMS3003;52200;53.490;14.376;2023-09-30T03:51:55;9.50;7.00;1.75
65556;PMS3003;52200;53.490;14.376;2023-09-30T03:54:20;10.75;7.50;2.00
65556;PMS3003;52200;53.490;14.376;2023-09-30T03:56:47;16.40;11.40;2.00
65556;PMS3003;52200;53.490;14.376;2023-09-30T03:59:12;10.80;8.20;1.20
65556;PMS3003;52200;53.490;14.376;2023-09-30T04:01:38;11.75;9.25;2.75
65556;PMS3003;52200;53.490;14.376;2023-09-30T04:04:07;12.60;9.00;2.40
65556;PMS3003;52200;53.490;14.376;2023-09-30T04:06:35;7.40;7.00;1.80
65556;PMS3003;52200;53.490;14.376;2023-09-30T04:09:03;9.40;7.60;1.80
65556;PMS3003;52200;53.490;14.376;2023-09-30T04:11:34;12.40;9.60;1.80
65556;PMS3003;52200;53.490;14.376;2023-09-30T04:14:00;8.25;7.75;2.25
65556;PMS3003;52200;53.490;14.376;2023-09-30T04:16:25;10.25;7.25;1.75
65556;PMS3003;52200;53.490;14.376;2023-09-30T04:18:54;7.80;7.00;2.00
65556;PMS3003;52200;53.490;14.376;2023-09-30T04:21:20;11.40;8.40;2.00
65556;PMS3003;52200;53.490;14.376;2023-09-30T04:23:45;8.75;7.00;2.00
65556;PMS3003;52200;53.490;14.376;2023-09-30T04:26:11;10.75;7.00;2.00
65556;PMS3003;52200;53.490;14.376;2023-09-30T04:28:37;8.40;8.00;2.60
65556;PMS3003;52200;53.490;14.376;2023-09-30T04:31:02;10.75;8.75;1.00
65556;PMS3003;52200;53.490;14.376;2023-09-30T04:33:28;9.00;7.50;2.50
65556;PMS3003;52200;53.490;14.376;2023-09-30T04:35:53;6.50;6.25;1.25
65556;PMS3003;52200;53.490;14.376;2023-09-30T04:38:19;10.00;7.50;2.00
65556;PMS3003;52200;53.490;14.376;2023-09-30T04:40:44;10.60;7.40;1.20
65556;PMS3003;52200;53.490;14.376;2023-09-30T04:43:13;12.20;8.60;2.60
65556;PMS3003;52200;53.490;14.376;2023-09-30T04:45:39;9.00;8.00;2.00
65556;PMS3003;52200;53.490;14.376;2023-09-30T04:48:05;11.20;9.00;1.60
65556;PMS3003;52200;53.490;14.376;2023-09-30T04:50:31;8.75;7.00;2.00
65556;PMS3003;52200;53.490;14.376;2023-09-30T04:52:56;9.25;7.75;2.00
65556;PMS3003;52200;53.490;14.376;2023-09-30T04:55:25;9.40;7.20;2.00
65556;PMS3003;52200;53.490;14.376;2023-09-30T04:57:51;10.20;8.80;1.60
65556;PMS3003;52200;53.490;14.376;2023-09-30T05:00:18;10.20;7.80;2.00
65556;PMS3003;52200;53.490;14.376;2023-09-30T05:02:47;12.20;6.80;1.00
65556;PMS3003;52200;53.490;14.376;2023-09-30T05:05:13;7.00;6.00;1.50
65556;PMS3003;52200;53.490;14.376;2023-09-30T05:07:41;8.80;7.00;2.00
65556;PMS3003;52200;53.490;14.376;2023-09-30T05:10:07;9.75;8.00;2.00
65556;PMS3003;52200;53.490;14.376;2023-09-30T05:12:38;11.00;8.80;1.80
65556;PMS3003;52200;53.490;14.376;2023-09-30T05:15:04;11.25;8.25;2.00
65556;PMS3003;52200;53.490;14.376;2023-09-30T05:17:31;12.60;9.20;1.80
65556;PMS3003;52200;53.490;14.376;2023-09-30T05:19:57;16.25;12.75;3.00
65556;PMS3003;52200;53.490;14.376;2023-09-30T05:22:23;10.00;8.20;2.40
65556;PMS3003;52200;53.490;14.376;2023-09-30T05:24:52;12.00;8.40;1.60
65556;PMS3003;52200;53.490;14.376;2023-09-30T05:27:19;12.20;10.20;2.80
65556;PMS3003;52200;53.490;14.376;2023-09-30T05:29:45;10.00;9.00;2.00
65556;PMS3003;52200;53.490;14.376;2023-09-30T05:32:10;14.25;10.25;2.00
65556;PMS3003;52200;53.490;14.376;2023-09-30T05:34:36;9.25;6.75;1.00
65556;PMS3003;52200;53.490;14.376;2023-09-30T05:37:02;10.60;7.80;1.80
65556;PMS3003;52200;53.490;14.376;2023-09-30T05:39:28;9.00;8.00;2.25
65556;PMS3003;52200;53.490;14.376;2023-09-30T05:41:54;7.25;6.50;2.00
65556;PMS3003;52200;53.490;14.376;2023-09-30T05:44:20;14.00;10.80;2.00
65556;PMS3003;52200;53.490;14.376;2023-09-30T05:46:46;8.25;8.00;2.00
65556;PMS3003;52200;53.490;14.376;2023-09-30T05:49:13;13.20;10.20;2.00
65556;PMS3003;52200;53.490;14.376;2023-09-30T05:51:42;8.25;7.00;1.00
65556;PMS3003;52200;53.490;14.376;2023-09-30T05:54:08;10.00;7.60;2.00
65556;PMS3003;52200;53.490;14.376;2023-09-30T05:56:35;7.80;7.40;0.60
65556;PMS3003;52200;53.490;14.376;2023-09-30T05:59:02;8.00;6.40;2.00
65556;PMS3003;52200;53.490;14.376;2023-09-30T06:01:30;13.00;8.00;1.00
65556;PMS3003;52200;53.490;14.376;2023-09-30T06:03:57;11.20;7.60;1.40
65556;PMS3003;52200;53.490;14.376;2023-09-30T06:06:23;7.25;6.75;2.00
65556;PMS3003;52200;53.490;14.376;2023-09-30T06:08:49;11.40;8.60;2.00
65556;PMS3003;52200;53.490;14.376;2023-09-30T06:11:21;7.75;6.00;1.50
65556;PMS3003;52200;53.490;14.376;2023-09-30T06:13:56;9.40;7.40;2.00
65556;PMS3003;52200;53.490;14.376;2023-09-30T06:16:26;11.80;8.60;1.40
65556;PMS3003;52200;53.490;14.376;2023-09-30T06:18:52;13.20;8.40;2.00
65556;PMS3003;52200;53.490;14.376;2023-09-30T06:21:18;8.00;6.60;1.00
65556;PMS3003;52200;53.490;14.376;2023-09-30T06:23:46;12.60;9.00;2.00
65556;PMS3003;52200;53.490;14.376;2023-09-30T06:26:12;8.60;7.40;2.00
65556;PMS3003;52200;53.490;14.376;2023-09-30T06:28:38;8.50;7.75;2.00
65556;PMS3003;52200;53.490;14.376;2023-09-30T06:31:09;11.60;9.60;2.00
65556;PMS3003;52200;53.490;14.376;2023-09-30T06:33:35;10.60;8.00;2.00
65556;PMS3003;52200;53.490;14.376;2023-09-30T06:36:03;9.80;8.00;1.40
65556;PMS3003;52200;53.490;14.376;2023-09-30T06:38:32;10.60;9.00;2.00
65556;PMS3003;52200;53.490;14.376;2023-09-30T06:40:58;6.75;5.25;1.00
65556;PMS3003;52200;53.490;14.376;2023-09-30T06:43:24;8.40;8.00;2.00
65556;PMS3003;52200;53.490;14.376;2023-09-30T06:45:50;10.50;7.50;1.00
65556;PMS3003;52200;53.490;14.376;2023-09-30T06:48:15;10.75;6.75;2.00
65556;PMS3003;52200;53.490;14.376;2023-09-30T06:50:44;12.25;7.75;1.75
65556;PMS3003;52200;53.490;14.376;2023-09-30T06:53:16;8.60;7.60;1.00
65556;PMS3003;52200;53.490;14.376;2023-09-30T06:55:43;11.80;8.00;1.00
65556;PMS3003;52200;53.490;14.376;2023-09-30T06:58:09;8.00;6.40;2.00
65556;PMS3003;52200;53.490;14.376;2023-09-30T07:00:40;7.00;7.00;2.00
65556;PMS3003;52200;53.490;14.376;2023-09-30T07:03:06;10.20;9.00;2.00
65556;PMS3003;52200;53.490;14.376;2023-09-30T07:05:35;7.80;6.80;1.00
65556;PMS3003;52200;53.490;14.376;2023-09-30T07:08:01;12.20;8.00;2.20
65556;PMS3003;52200;53.490;14.376;2023-09-30T07:10:27;9.50;7.00;1.25
65556;PMS3003;52200;53.490;14.376;2023-09-30T07:12:54;9.20;6.40;1.00
65556;PMS3003;52200;53.490;14.376;2023-09-30T07:15:20;6.60;5.00;1.60
65556;PMS3003;52200;53.490;14.376;2023-09-30T07:17:45;8.00;7.00;1.25
65556;PMS3003;52200;53.490;14.376;2023-09-30T07:20:12;9.00;8.00;2.00
65556;PMS3003;52200;53.490;14.376;2023-09-30T07:22:38;12.00;10.00;2.00
65556;PMS3003;52200;53.490;14.376;2023-09-30T07:25:04;13.50;8.25;2.00
65556;PMS3003;52200;53.490;14.376;2023-09-30T07:27:30;10.50;9.25;2.00
65556;PMS3003;52200;53.490;14.376;2023-09-30T07:29:55;12.25;7.75;1.25
65556;PMS3003;52200;53.490;14.376;2023-09-30T07:32:21;7.50;6.50;1.00
65556;PMS3003;52200;53.490;14.376;2023-09-30T07:34:49;10.60;9.40;2.00
65556;PMS3003;52200;53.490;14.376;2023-09-30T07:37:16;8.80;8.00;1.00
65556;PMS3003;52200;53.490;14.376;2023-09-30T07:39:42;8.80;7.20;2.00
65556;PMS3003;52200;53.490;14.376;2023-09-30T07:42:09;8.00;7.50;2.00
65556;PMS3003;52200;53.490;14.376;2023-09-30T07:44:34;10.60;8.60;2.00
65556;PMS3003;52200;53.490;14.376;2023-09-30T07:47:02;7.20;6.20;1.20
65556;PMS3003;52200;53.490;14.376;2023-09-30T07:49:28;7.40;6.60;1.80
65556;PMS3003;52200;53.490;14.376;2023-09-30T07:52:00;6.80;6.00;1.00
65556;PMS3003;52200;53.490;14.376;2023-09-30T07:54:25;9.75;7.25;2.00
65556;PMS3003;52200;53.490;14.376;2023-09-30T07:56:51;9.00;8.00;1.00
65556;PMS3003;52200;53.490;14.376;2023-09-30T07:59:17;9.00;9.00;2.00
65556;PMS3003;52200;53.490;14.376;2023-09-30T08:01:42;10.00;8.00;1.25
65556;PMS3003;52200;53.490;14.376;2023-09-30T08:04:08;9.00;7.00;2.00
65556;PMS3003;52200;53.490;14.376;2023-09-30T08:06:34;5.50;5.50;1.00
65556;PMS3003;52200;53.490;14.376;2023-09-30T08:08:59;8.50;6.00;1.00
65556;PMS3003;52200;53.490;14.376;2023-09-30T08:11:25;9.75;6.75;1.00
65556;PMS3003;52200;53.490;14.376;2023-09-30T08:13:55;7.80;6.00;1.00
65556;PMS3003;52200;53.490;14.376;2023-09-30T08:16:20;10.40;6.60;1.00
65556;PMS3003;52200;53.490;14.376;2023-09-30T08:18:46;10.75;8.50;1.00
65556;PMS3003;52200;53.490;14.376;2023-09-30T08:21:11;8.75;6.00;1.00
65556;PMS3003;52200;53.490;14.376;2023-09-30T08:23:37;6.75;5.00;0.00
65556;PMS3003;52200;53.490;14.376;2023-09-30T08:26:04;10.40;7.00;1.20
65556;PMS3003;52200;53.490;14.376;2023-09-30T08:28:30;5.20;5.00;1.00
65556;PMS3003;52200;53.490;14.376;2023-09-30T08:31:01;10.00;7.40;1.00
65556;PMS3003;52200;53.490;14.376;2023-09-30T08:33:30;6.00;5.00;1.00
65556;PMS3003;52200;53.490;14.376;2023-09-30T08:36:03;5.00;5.00;0.00
65556;PMS3003;52200;53.490;14.376;2023-09-30T08:38:36;9.40;6.80;1.00
65556;PMS3003;52200;53.490;14.376;2023-09-30T08:41:03;9.60;7.20;2.00
65556;PMS3003;52200;53.490;14.376;2023-09-30T08:43:30;7.80;7.60;1.00
65556;PMS3003;52200;53.490;14.376;2023-09-30T08:45:57;7.80;6.80;1.00
65556;PMS3003;52200;53.490;14.376;2023-09-30T08:48:23;7.40;7.00;1.60
65556;PMS3003;52200;53.490;14.376;2023-09-30T08:50:52;9.20;6.00;1.00
65556;PMS3003;52200;53.490;14.376;2023-09-30T08:53:19;5.40;4.40;1.00
65556;PMS3003;52200;53.490;14.376;2023-09-30T08:55:45;6.00;5.75;1.00
65556;PMS3003;52200;53.490;14.376;2023-09-30T08:58:11;8.60;7.00;1.20
65556;PMS3003;52200;53.490;14.376;2023-09-30T09:00:38;9.80;8.60;1.00
65556;PMS3003;52200;53.490;14.376;2023-09-30T09:03:07;6.60;5.60;1.00
65556;PMS3003;52200;53.490;14.376;2023-09-30T09:05:33;5.80;5.80;1.00
65556;PMS3003;52200;53.490;14.376;2023-09-30T09:07:59;7.00;6.00;0.00
65556;PMS3003;52200;53.490;14.376;2023-09-30T09:10:24;9.75;7.00;1.00
65556;PMS3003;52200;53.490;14.376;2023-09-30T09:12:57;6.50;5.50;1.00
65556;PMS3003;52200;53.490;14.376;2023-09-30T09:15:27;7.60;5.80;1.00
65556;PMS3003;52200;53.490;14.376;2023-09-30T09:17:53;9.40;6.60;1.20
65556;PMS3003;52200;53.490;14.376;2023-09-30T09:20:20;6.00;5.80;0.80
65556;PMS3003;52200;53.490;14.376;2023-09-30T09:22:49;7.80;6.60;2.00
65556;PMS3003;52200;53.490;14.376;2023-09-30T09:25:18;7.00;6.40;1.00
65556;PMS3003;52200;53.490;14.376;2023-09-30T09:27:43;9.20;7.20;0.00
65556;PMS3003;52200;53.490;14.376;2023-09-30T09:30:22;7.25;5.50;0.75
65556;PMS3003;52200;53.490;14.376;2023-09-30T09:32:52;6.80;6.00;1.00
65556;PMS3003;52200;53.490;14.376;2023-09-30T09:35:21;10.40;8.60;1.40
65556;PMS3003;52200;53.490;14.376;2023-09-30T09:37:54;6.20;6.00;1.00
65556;PMS3003;52200;53.490;14.376;2023-09-30T09:40:33;6.00;6.00;1.00
65556;PMS3003;52200;53.490;14.376;2023-09-30T09:43:03;8.40;6.80;0.60
65556;PMS3003;52200;53.490;14.376;2023-09-30T09:45:30;9.60;8.00;1.20
65556;PMS3003;52200;53.490;14.376;2023-09-30T09:47:58;8.40;6.80;1.00
65556;PMS3003;52200;53.490;14.376;2023-09-30T09:50:24;8.20;7.00;1.20
65556;PMS3003;52200;53.490;14.376;2023-09-30T09:52:50;8.25;6.00;1.00
65556;PMS3003;52200;53.490;14.376;2023-09-30T09:55:19;7.60;6.00;1.00
65556;PMS3003;52200;53.490;14.376;2023-09-30T09:57:47;6.20;5.20;0.60
65556;PMS3003;52200;53.490;14.376;2023-09-30T10:00:32;6.60;5.60;0.40
65556;PMS3003;52200;53.490;14.376;2023-09-30T10:02:58;5.40;5.20;1.00
65556;PMS3003;52200;53.490;14.376;2023-09-30T10:05:24;9.00;7.75;1.50
65556;PMS3003;52200;53.490;14.376;2023-09-30T10:07:51;8.50;5.25;1.00
65556;PMS3003;52200;53.490;14.376;2023-09-30T10:10:30;8.00;7.00;1.00
65556;PMS3003;52200;53.490;14.376;2023-09-30T10:13:00;8.20;7.00;0.80
65556;PMS3003;52200;53.490;14.376;2023-09-30T10:18:09;8.50;5.00;0.75
65556;PMS3003;52200;53.490;14.376;2023-09-30T10:20:37;6.00;4.80;0.80
65556;PMS3003;52200;53.490;14.376;2023-09-30T10:23:22;7.00;6.20;1.00
65556;PMS3003;52200;53.490;14.376;2023-09-30T10:25:53;6.60;5.80;0.80
65556;PMS3003;52200;53.490;14.376;2023-09-30T10:28:40;4.00;3.80;0.00
65556;PMS3003;52200;53.490;14.376;2023-09-30T10:34:18;8.20;7.40;1.80
65556;PMS3003;52200;53.490;14.376;2023-09-30T10:36:39;7.60;7.40;1.40
65556;PMS3003;52200;53.490;14.376;2023-09-30T10:39:06;8.80;5.80;0.80
65556;PMS3003;52200;53.490;14.376;2023-09-30T10:49:56;10.20;8.60;1.80
65556;PMS3003;52200;53.490;14.376;2023-09-30T10:52:22;6.00;5.00;0.00
65556;PMS3003;52200;53.490;14.376;2023-09-30T10:54:48;7.20;6.00;0.80
65556;PMS3003;52200;53.490;14.376;2023-09-30T10:57:14;7.25;6.50;1.75
65556;PMS3003;52200;53.490;14.376;2023-09-30T11:00:06;8.60;6.20;0.80
65556;PMS3003;52200;53.490;14.376;2023-09-30T11:02:47;8.20;6.40;0.00
65556;PMS3003;52200;53.490;14.376;2023-09-30T11:05:13;6.80;5.20;0.60
65556;PMS3003;52200;53.490;14.376;2023-09-30T11:07:39;5.50;5.00;0.50
65556;PMS3003;52200;53.490;14.376;2023-09-30T11:10:07;7.40;5.40;0.00
65556;PMS3003;52200;53.490;14.376;2023-09-30T11:12:33;6.40;5.00;1.00
65556;PMS3003;52200;53.490;14.376;2023-09-30T11:14:59;10.00;6.60;1.00
65556;PMS3003;52200;53.490;14.376;2023-09-30T11:17:27;6.20;4.80;0.40
65556;PMS3003;52200;53.490;14.376;2023-09-30T11:19:52;6.25;6.00;1.00
65556;PMS3003;52200;53.490;14.376;2023-09-30T11:22:19;7.20;5.60;0.00
65556;PMS3003;52200;53.490;14.376;2023-09-30T11:24:45;5.00;4.80;0.80
65556;PMS3003;52200;53.490;14.376;2023-09-30T11:27:11;7.00;6.00;1.00
65556;PMS3003;52200;53.490;14.376;2023-09-30T11:29:36;4.25;4.00;0.25
65556;PMS3003;52200;53.490;14.376;2023-09-30T11:32:02;6.25;4.75;1.00
65556;PMS3003;52200;53.490;14.376;2023-09-30T11:34:34;9.00;6.20;0.80
65556;PMS3003;52200;53.490;14.376;2023-09-30T11:37:01;6.00;5.20;0.00
65556;PMS3003;52200;53.490;14.376;2023-09-30T11:39:30;7.00;3.80;0.00
65556;PMS3003;52200;53.490;14.376;2023-09-30T11:41:57;5.00;4.00;0.00
65556;PMS3003;52200;53.490;14.376;2023-09-30T11:44:23;5.00;3.50;0.00
65556;PMS3003;52200;53.490;14.376;2023-09-30T11:49:24;5.20;4.00;0.00
65556;PMS3003;52200;53.490;14.376;2023-09-30T11:51:58;6.20;4.60;0.00
65556;PMS3003;52200;53.490;14.376;2023-09-30T11:54:28;5.80;4.60;0.40
65556;PMS3003;52200;53.490;14.376;2023-09-30T11:56:55;6.20;5.80;0.60
65556;PMS3003;52200;53.490;14.376;2023-09-30T11:59:20;5.50;5.00;1.00
65556;PMS3003;52200;53.490;14.376;2023-09-30T12:01:47;4.80;4.00;0.00
65556;PMS3003;52200;53.490;14.376;2023-09-30T12:04:16;4.80;4.80;0.00
65556;PMS3003;52200;53.490;14.376;2023-09-30T12:06:44;4.00;3.00;0.00
65556;PMS3003;52200;53.490;14.376;2023-09-30T12:09:10;5.80;4.20;0.00
65556;PMS3003;52200;53.490;14.376;2023-09-30T12:11:39;3.40;3.40;0.00
65556;PMS3003;52200;53.490;14.376;2023-09-30T12:14:09;7.20;4.00;0.00
65556;PMS3003;52200;53.490;14.376;2023-09-30T12:16:35;5.00;4.20;0.00
65556;PMS3003;52200;53.490;14.376;2023-09-30T12:19:01;6.00;4.50;0.00
65556;PMS3003;52200;53.490;14.376;2023-09-30T12:21:26;5.75;5.00;0.25
65556;PMS3003;52200;53.490;14.376;2023-09-30T12:23:51;4.00;4.00;1.00
65556;PMS3003;52200;53.490;14.376;2023-09-30T12:26:17;6.25;5.25;0.50
65556;PMS3003;52200;53.490;14.376;2023-09-30T12:28:45;4.40;4.40;0.00
65556;PMS3003;52200;53.490;14.376;2023-09-30T12:31:10;6.00;5.00;0.00
65556;PMS3003;52200;53.490;14.376;2023-09-30T12:33:36;8.50;7.50;0.75
65556;PMS3003;52200;53.490;14.376;2023-09-30T12:36:02;6.75;5.25;0.00
65556;PMS3003;52200;53.490;14.376;2023-09-30T12:38:27;4.80;4.00;0.20
65556;PMS3003;52200;53.490;14.376;2023-09-30T12:40:53;9.50;7.00;1.25
65556;PMS3003;52200;53.490;14.376;2023-09-30T12:43:19;4.80;3.80;0.40
65556;PMS3003;52200;53.490;14.376;2023-09-30T12:45:46;6.00;4.20;0.60
65556;PMS3003;52200;53.490;14.376;2023-09-30T12:48:12;4.00;3.80;0.00
65556;PMS3003;52200;53.490;14.376;2023-09-30T12:50:38;4.80;4.80;1.00
65556;PMS3003;52200;53.490;14.376;2023-09-30T12:53:03;6.00;5.00;0.00
65556;PMS3003;52200;53.490;14.376;2023-09-30T12:55:29;6.75;5.00;0.00
65556;PMS3003;52200;53.490;14.376;2023-09-30T12:57:54;5.00;4.25;0.25
65556;PMS3003;52200;53.490;14.376;2023-09-30T13:00:20;4.75;4.00;0.00
65556;PMS3003;52200;53.490;14.376;2023-09-30T13:02:47;6.00;4.80;0.80
65556;PMS3003;52200;53.490;14.376;2023-09-30T13:05:13;7.20;5.00;1.00
65556;PMS3003;52200;53.490;14.376;2023-09-30T13:07:39;5.00;4.60;0.80
65556;PMS3003;52200;53.490;14.376;2023-09-30T13:10:04;5.00;4.25;0.50
65556;PMS3003;52200;53.490;14.376;2023-09-30T13:12:31;6.20;5.00;0.40
65556;PMS3003;52200;53.490;14.376;2023-09-30T13:15:00;5.60;5.00;1.00
65556;PMS3003;52200;53.490;14.376;2023-09-30T13:17:25;5.25;4.50;0.75
65556;PMS3003;52200;53.490;14.376;2023-09-30T13:19:51;5.00;4.00;0.00
65556;PMS3003;52200;53.490;14.376;2023-09-30T13:22:17;6.75;5.50;1.00
65556;PMS3003;52200;53.490;14.376;2023-09-30T13:24:43;5.80;5.80;0.80
65556;PMS3003;52200;53.490;14.376;2023-09-30T13:27:08;4.75;4.50;0.75
65556;PMS3003;52200;53.490;14.376;2023-09-30T13:29:34;5.50;3.50;0.00
65556;PMS3003;52200;53.490;14.376;2023-09-30T13:32:00;6.80;5.40;0.00
65556;PMS3003;52200;53.490;14.376;2023-09-30T13:34:26;7.75;5.75;1.00
65556;PMS3003;52200;53.490;14.376;2023-09-30T13:36:51;2.50;2.25;0.00
65556;PMS3003;52200;53.490;14.376;2023-09-30T13:39:17;4.25;4.00;0.75
65556;PMS3003;52200;53.490;14.376;2023-09-30T13:41:43;7.00;5.00;0.00
65556;PMS3003;52200;53.490;14.376;2023-09-30T13:44:08;4.80;3.20;0.20
65556;PMS3003;52200;53.490;14.376;2023-09-30T13:46:35;4.20;4.20;0.00
65556;PMS3003;52200;53.490;14.376;2023-09-30T13:49:01;4.50;4.50;0.75
65556;PMS3003;52200;53.490;14.376;2023-09-30T13:51:26;4.50;4.00;0.00
65556;PMS3003;52200;53.490;14.376;2023-09-30T13:53:52;5.25;4.75;0.00
65556;PMS3003;52200;53.490;14.376;2023-09-30T13:56:18;4.80;4.40;0.00
65556;PMS3003;52200;53.490;14.376;2023-09-30T13:58:44;6.40;5.80;1.00
65556;PMS3003;52200;53.490;14.376;2023-09-30T14:01:12;6.00;5.00;0.50
65556;PMS3003;52200;53.490;14.376;2023-09-30T14:03:38;7.80;5.00;0.60
65556;PMS3003;52200;53.490;14.376;2023-09-30T14:06:09;4.80;4.20;0.00
65556;PMS3003;52200;53.490;14.376;2023-09-30T14:08:38;4.80;3.80;0.00
65556;PMS3003;52200;53.490;14.376;2023-09-30T14:11:04;3.60;3.20;0.00
65556;PMS3003;52200;53.490;14.376;2023-09-30T14:13:29;7.75;6.00;1.00
65556;PMS3003;52200;53.490;14.376;2023-09-30T14:15:55;5.00;4.20;0.00
65556;PMS3003;52200;53.490;14.376;2023-09-30T14:18:21;5.50;5.00;1.00
65556;PMS3003;52200;53.490;14.376;2023-09-30T14:20:47;4.00;3.20;0.20